sensor_id;sensor_type;location;lat;lon;timestamp;P1;durP1;ratioP1;P2;durP2;ratioP2
23539;SDS011;11947;50.810;4.394;2023-02-03T00:00:54;18.15;;;4.75;;
23539;SDS011;11947;50.810;4.394;2023-02-03T00:03:20;19.33;;;4.65;;
23539;SDS011;11947;50.810;4.394;2023-02-03T00:05:46;11.35;;;4.25;;
23539;SDS011;11947;50.810;4.394;2023-02-03T00:08:11;14.15;;;4.00;;
23539;SDS011;11947;50.810;4.394;2023-02-03T00:10:38;12.93;;;4.10;;
23539;SDS011;11947;50.810;4.394;2023-02-03T00:13:04;12.05;;;4.25;;
23539;SDS011;11947;50.810;4.394;2023-02-03T00:15:31;21.20;;;5.00;;
23539;SDS011;11947;50.810;4.394;2023-02-03T00:17:56;14.38;;;4.55;;
23539;SDS011;11947;50.810;4.394;2023-02-03T00:20:22;20.17;;;5.07;;
23539;SDS011;11947;50.810;4.394;2023-02-03T00:22:48;16.90;;;4.55;;
23539;SDS011;11947;50.810;4.394;2023-02-03T00:25:13;23.58;;;4.45;;
23539;SDS011;11947;50.810;4.394;2023-02-03T00:27:39;22.88;;;4.40;;
23539;SDS011;11947;50.810;4.394;2023-02-03T00:30:04;24.02;;;4.13;;
23539;SDS011;11947;50.810;4.394;2023-02-03T00:32:30;15.70;;;4.13;;
23539;SDS011;11947;50.810;4.394;2023-02-03T00:34:57;16.98;;;4.28;;
23539;SDS011;11947;50.810;4.394;2023-02-03T00:37:23;13.82;;;4.55;;
23539;SDS011;11947;50.810;4.394;2023-02-03T00:39:48;17.33;;;3.95;;
23539;SDS011;11947;50.810;4.394;2023-02-03T00:42:14;15.70;;;3.97;;
23539;SDS011;11947;50.810;4.394;2023-02-03T00:44:40;15.13;;;3.55;;
23539;SDS011;11947;50.810;4.394;2023-02-03T00:47:06;18.02;;;4.00;;
23539;SDS011;11947;50.810;4.394;2023-02-03T00:49:32;22.48;;;5.25;;
23539;SDS011;11947;50.810;4.394;2023-02-03T00:51:58;20.02;;;4.50;;
23539;SDS011;11947;50.810;4.394;2023-02-03T00:54:23;18.00;;;3.95;;
23539;SDS011;11947;50.810;4.394;2023-02-03T00:56:49;17.25;;;4.20;;
23539;SDS011;11947;50.810;4.394;2023-02-03T00:59:14;17.63;;;4.38;;
23539;SDS011;11947;50.810;4.394;2023-02-03T01:01:40;24.63;;;4.38;;
23539;SDS011;11947;50.810;4.394;2023-02-03T01:04:06;19.67;;;3.78;;
23539;SDS011;11947;50.810;4.394;2023-02-03T01:06:31;17.42;;;4.03;;
23539;SDS011;11947;50.810;4.394;2023-02-03T01:08:57;26.00;;;6.25;;
23539;SDS011;11947;50.810;4.394;2023-02-03T01:11:24;20.70;;;4.85;;
23539;SDS011;11947;50.810;4.394;2023-02-03T01:13:54;19.70;;;4.60;;
23539;SDS011;11947;50.810;4.394;2023-02-03T01:16:21;24.88;;;4.57;;
23539;SDS011;11947;50.810;4.394;2023-02-03T01:18:48;20.67;;;3.65;;
23539;SDS011;11947;50.810;4.394;2023-02-03T01:21:21;19.17;;;3.42;;
23539;SDS011;11947;50.810;4.394;2023-02-03T01:23:48;16.58;;;3.85;;
23539;SDS011;11947;50.810;4.394;2023-02-03T01:26:15;15.63;;;4.20;;
23539;SDS011;11947;50.810;4.394;2023-02-03T01:28:43;22.50;;;3.88;;
23539;SDS011;11947;50.810;4.394;2023-02-03T01:31:19;18.70;;;3.72;;
23539;SDS011;11947;50.810;4.394;2023-02-03T01:33:49;18.42;;;3.90;;
23539;SDS011;11947;50.810;4.394;2023-02-03T01:36:16;19.27;;;4.28;;
23539;SDS011;11947;50.810;4.394;2023-02-03T01:38:43;22.30;;;4.45;;
23539;SDS011;11947;50.810;4.394;2023-02-03T01:41:11;21.50;;;4.32;;
23539;SDS011;11947;50.810;4.394;2023-02-03T01:43:39;19.15;;;4.00;;
23539;SDS011;11947;50.810;4.394;2023-02-03T01:51:37;28.45;;;4.88;;
23539;SDS011;11947;50.810;4.394;2023-02-03T01:54:10;21.63;;;4.70;;
23539;SDS011;11947;50.810;4.394;2023-02-03T01:56:40;28.10;;;4.53;;
23539;SDS011;11947;50.810;4.394;2023-02-03T01:59:09;17.48;;;4.50;;
23539;SDS011;11947;50.810;4.394;2023-02-03T02:01:35;22.17;;;5.07;;
23539;SDS011;11947;50.810;4.394;2023-02-03T02:04:02;22.45;;;4.70;;
23539;SDS011;11947;50.810;4.394;2023-02-03T02:06:29;24.60;;;4.38;;
23539;SDS011;11947;50.810;4.394;2023-02-03T02:08:55;21.20;;;3.90;;
23539;SDS011;11947;50.810;4.394;2023-02-03T02:11:24;13.75;;;2.70;;
23539;SDS011;11947;50.810;4.394;2023-02-03T02:13:51;20.73;;;2.80;;
23539;SDS011;11947;50.810;4.394;2023-02-03T02:32:50;12.77;;;2.35;;
23539;SDS011;11947;50.810;4.394;2023-02-03T02:46:02;14.80;;;3.03;;
23539;SDS011;11947;50.810;4.394;2023-02-03T02:51:08;17.02;;;2.83;;
23539;SDS011;11947;50.810;4.394;2023-02-03T02:53:38;19.88;;;3.55;;
23539;SDS011;11947;50.810;4.394;2023-02-03T02:56:08;20.70;;;3.00;;
23539;SDS011;11947;50.810;4.394;2023-02-03T02:58:35;18.60;;;2.78;;
23539;SDS011;11947;50.810;4.394;2023-02-03T03:01:03;20.15;;;2.70;;
23539;SDS011;11947;50.810;4.394;2023-02-03T03:03:31;16.17;;;3.05;;
23539;SDS011;11947;50.810;4.394;2023-02-03T03:06:01;16.52;;;2.88;;
23539;SDS011;11947;50.810;4.394;2023-02-03T03:08:36;13.95;;;2.33;;
23539;SDS011;11947;50.810;4.394;2023-02-03T03:11:06;15.35;;;2.50;;
23539;SDS011;11947;50.810;4.394;2023-02-03T03:13:33;17.17;;;2.63;;
23539;SDS011;11947;50.810;4.394;2023-02-03T03:16:06;12.55;;;2.30;;
23539;SDS011;11947;50.810;4.394;2023-02-03T03:18:39;13.18;;;2.20;;
23539;SDS011;11947;50.810;4.394;2023-02-03T03:21:13;14.07;;;2.55;;
23539;SDS011;11947;50.810;4.394;2023-02-03T03:23:44;12.63;;;2.10;;
23539;SDS011;11947;50.810;4.394;2023-02-03T03:26:19;15.48;;;2.38;;
23539;SDS011;11947;50.810;4.394;2023-02-03T03:32:00;19.48;;;2.70;;
23539;SDS011;11947;50.810;4.394;2023-02-03T03:34:26;15.13;;;2.10;;
23539;SDS011;11947;50.810;4.394;2023-02-03T03:37:54;16.95;;;2.50;;
23539;SDS011;11947;50.810;4.394;2023-02-03T03:39:57;15.00;;;2.35;;
23539;SDS011;11947;50.810;4.394;2023-02-03T03:42:59;16.10;;;2.08;;
23539;SDS011;11947;50.810;4.394;2023-02-03T03:45:32;14.13;;;2.22;;
23539;SDS011;11947;50.810;4.394;2023-02-03T03:48:08;12.73;;;2.10;;
23539;SDS011;11947;50.810;4.394;2023-02-03T03:50:37;9.20;;;1.92;;
23539;SDS011;11947;50.810;4.394;2023-02-03T03:53:06;9.43;;;2.03;;
23539;SDS011;11947;50.810;4.394;2023-02-03T03:55:35;9.85;;;2.40;;
23539;SDS011;11947;50.810;4.394;2023-02-03T03:58:03;12.38;;;2.00;;
23539;SDS011;11947;50.810;4.394;2023-02-03T04:00:33;12.57;;;2.15;;
23539;SDS011;11947;50.810;4.394;2023-02-03T04:03:10;15.00;;;2.30;;
23539;SDS011;11947;50.810;4.394;2023-02-03T04:05:39;12.25;;;1.77;;
23539;SDS011;11947;50.810;4.394;2023-02-03T04:08:06;13.95;;;2.85;;
23539;SDS011;11947;50.810;4.394;2023-02-03T04:12:58;20.33;;;2.50;;
23539;SDS011;11947;50.810;4.394;2023-02-03T04:15:25;9.57;;;1.83;;
23539;SDS011;11947;50.810;4.394;2023-02-03T04:17:51;9.48;;;2.08;;
23539;SDS011;11947;50.810;4.394;2023-02-03T04:20:18;10.18;;;1.90;;
23539;SDS011;11947;50.810;4.394;2023-02-03T04:22:44;12.75;;;2.22;;
23539;SDS011;11947;50.810;4.394;2023-02-03T04:25:10;11.32;;;2.10;;
23539;SDS011;11947;50.810;4.394;2023-02-03T04:27:36;19.05;;;2.05;;
23539;SDS011;11947;50.810;4.394;2023-02-03T04:30:02;11.32;;;1.60;;
23539;SDS011;11947;50.810;4.394;2023-02-03T04:32:28;11.95;;;2.33;;
23539;SDS011;11947;50.810;4.394;2023-02-03T04:34:55;12.18;;;1.75;;
23539;SDS011;11947;50.810;4.394;2023-02-03T04:37:21;9.93;;;1.55;;
23539;SDS011;11947;50.810;4.394;2023-02-03T04:39:47;13.02;;;2.17;;
23539;SDS011;11947;50.810;4.394;2023-02-03T04:42:15;11.98;;;1.70;;
23539;SDS011;11947;50.810;4.394;2023-02-03T04:44:40;17.42;;;2.03;;
23539;SDS011;11947;50.810;4.394;2023-02-03T04:47:06;9.30;;;1.70;;
23539;SDS011;11947;50.810;4.394;2023-02-03T04:49:32;7.70;;;2.00;;
23539;SDS011;11947;50.810;4.394;2023-02-03T04:51:57;11.07;;;1.55;;
23539;SDS011;11947;50.810;4.394;2023-02-03T04:54:23;8.35;;;1.55;;
23539;SDS011;11947;50.810;4.394;2023-02-03T04:56:48;14.73;;;2.35;;
23539;SDS011;11947;50.810;4.394;2023-02-03T04:59:14;19.08;;;2.05;;
23539;SDS011;11947;50.810;4.394;2023-02-03T05:01:39;9.23;;;2.13;;
23539;SDS011;11947;50.810;4.394;2023-02-03T05:04:05;11.32;;;1.58;;
23539;SDS011;11947;50.810;4.394;2023-02-03T05:06:30;7.80;;;1.52;;
23539;SDS011;11947;50.810;4.394;2023-02-03T05:08:57;7.18;;;1.40;;
23539;SDS011;11947;50.810;4.394;2023-02-03T05:11:23;10.45;;;1.50;;
23539;SDS011;11947;50.810;4.394;2023-02-03T05:13:49;12.43;;;1.75;;
23539;SDS011;11947;50.810;4.394;2023-02-03T05:16:14;6.95;;;1.40;;
23539;SDS011;11947;50.810;4.394;2023-02-03T05:18:40;9.10;;;1.40;;
23539;SDS011;11947;50.810;4.394;2023-02-03T05:21:06;12.02;;;1.33;;
23539;SDS011;11947;50.810;4.394;2023-02-03T05:23:31;7.30;;;1.20;;
23539;SDS011;11947;50.810;4.394;2023-02-03T05:25:57;11.95;;;1.92;;
23539;SDS011;11947;50.810;4.394;2023-02-03T05:28:23;10.90;;;1.55;;
23539;SDS011;11947;50.810;4.394;2023-02-03T05:30:49;7.80;;;1.70;;
23539;SDS011;11947;50.810;4.394;2023-02-03T05:33:14;11.48;;;1.63;;
23539;SDS011;11947;50.810;4.394;2023-02-03T05:35:40;9.68;;;1.90;;
23539;SDS011;11947;50.810;4.394;2023-02-03T05:38:06;9.95;;;1.60;;
23539;SDS011;11947;50.810;4.394;2023-02-03T05:40:31;8.00;;;1.55;;
23539;SDS011;11947;50.810;4.394;2023-02-03T05:43:15;11.20;;;1.67;;
23539;SDS011;11947;50.810;4.394;2023-02-03T05:45:41;11.13;;;1.70;;
23539;SDS011;11947;50.810;4.394;2023-02-03T05:48:07;7.57;;;2.00;;
23539;SDS011;11947;50.810;4.394;2023-02-03T05:50:33;9.23;;;1.70;;
23539;SDS011;11947;50.810;4.394;2023-02-03T05:53:00;6.72;;;1.42;;
23539;SDS011;11947;50.810;4.394;2023-02-03T05:55:27;9.55;;;1.77;;
23539;SDS011;11947;50.810;4.394;2023-02-03T05:57:53;10.80;;;1.70;;
23539;SDS011;11947;50.810;4.394;2023-02-03T06:00:19;15.02;;;1.80;;
23539;SDS011;11947;50.810;4.394;2023-02-03T06:02:56;8.85;;;1.40;;
23539;SDS011;11947;50.810;4.394;2023-02-03T06:05:24;12.98;;;1.98;;
23539;SDS011;11947;50.810;4.394;2023-02-03T06:07:50;11.77;;;2.03;;
23539;SDS011;11947;50.810;4.394;2023-02-03T06:10:16;10.45;;;1.70;;
23539;SDS011;11947;50.810;4.394;2023-02-03T06:12:42;8.70;;;1.60;;
23539;SDS011;11947;50.810;4.394;2023-02-03T06:15:08;9.80;;;1.85;;
23539;SDS011;11947;50.810;4.394;2023-02-03T06:17:34;11.18;;;1.80;;
23539;SDS011;11947;50.810;4.394;2023-02-03T06:20:00;15.88;;;2.28;;
23539;SDS011;11947;50.810;4.394;2023-02-03T06:22:30;11.13;;;1.67;;
23539;SDS011;11947;50.810;4.394;2023-02-03T06:24:55;8.27;;;1.67;;
23539;SDS011;11947;50.810;4.394;2023-02-03T06:27:21;11.40;;;1.88;;
23539;SDS011;11947;50.810;4.394;2023-02-03T06:29:47;9.55;;;1.98;;
23539;SDS011;11947;50.810;4.394;2023-02-03T06:32:12;12.55;;;2.05;;
23539;SDS011;11947;50.810;4.394;2023-02-03T06:34:38;9.80;;;1.65;;
23539;SDS011;11947;50.810;4.394;2023-02-03T06:37:04;9.10;;;2.03;;
23539;SDS011;11947;50.810;4.394;2023-02-03T06:39:29;12.27;;;2.15;;
23539;SDS011;11947;50.810;4.394;2023-02-03T06:41:55;17.02;;;2.20;;
23539;SDS011;11947;50.810;4.394;2023-02-03T06:44:21;8.63;;;2.00;;
23539;SDS011;11947;50.810;4.394;2023-02-03T06:46:47;7.97;;;1.60;;
23539;SDS011;11947;50.810;4.394;2023-02-03T06:49:14;5.10;;;1.50;;
23539;SDS011;11947;50.810;4.394;2023-02-03T06:51:41;11.50;;;2.05;;
23539;SDS011;11947;50.810;4.394;2023-02-03T06:54:07;14.20;;;2.40;;
23539;SDS011;11947;50.810;4.394;2023-02-03T06:56:34;8.85;;;1.88;;
23539;SDS011;11947;50.810;4.394;2023-02-03T06:59:00;13.52;;;1.88;;
23539;SDS011;11947;50.810;4.394;2023-02-03T07:01:26;7.70;;;1.83;;
23539;SDS011;11947;50.810;4.394;2023-02-03T07:03:53;6.70;;;1.52;;
23539;SDS011;11947;50.810;4.394;2023-02-03T07:06:22;12.55;;;1.83;;
23539;SDS011;11947;50.810;4.394;2023-02-03T07:08:52;11.82;;;2.20;;
23539;SDS011;11947;50.810;4.394;2023-02-03T07:11:21;10.57;;;2.03;;
23539;SDS011;11947;50.810;4.394;2023-02-03T07:13:47;10.50;;;1.90;;
23539;SDS011;11947;50.810;4.394;2023-02-03T07:16:13;10.43;;;2.35;;
23539;SDS011;11947;50.810;4.394;2023-02-03T07:18:39;15.45;;;2.08;;
23539;SDS011;11947;50.810;4.394;2023-02-03T07:21:05;10.75;;;2.33;;
23539;SDS011;11947;50.810;4.394;2023-02-03T07:23:31;10.55;;;1.88;;
23539;SDS011;11947;50.810;4.394;2023-02-03T07:26:04;8.75;;;1.67;;
23539;SDS011;11947;50.810;4.394;2023-02-03T07:28:31;17.88;;;2.30;;
23539;SDS011;11947;50.810;4.394;2023-02-03T07:31:00;12.07;;;2.13;;
23539;SDS011;11947;50.810;4.394;2023-02-03T07:33:26;16.25;;;2.00;;
23539;SDS011;11947;50.810;4.394;2023-02-03T07:35:52;17.10;;;2.25;;
23539;SDS011;11947;50.810;4.394;2023-02-03T07:38:19;16.52;;;1.95;;
23539;SDS011;11947;50.810;4.394;2023-02-03T07:40:45;17.45;;;2.80;;
23539;SDS011;11947;50.810;4.394;2023-02-03T07:43:11;14.75;;;2.17;;
23539;SDS011;11947;50.810;4.394;2023-02-03T07:45:36;8.88;;;1.70;;
23539;SDS011;11947;50.810;4.394;2023-02-03T07:48:02;13.45;;;2.47;;
23539;SDS011;11947;50.810;4.394;2023-02-03T07:50:27;10.18;;;2.00;;
23539;SDS011;11947;50.810;4.394;2023-02-03T07:52:53;11.43;;;1.83;;
23539;SDS011;11947;50.810;4.394;2023-02-03T07:55:19;7.38;;;2.03;;
23539;SDS011;11947;50.810;4.394;2023-02-03T07:57:45;10.95;;;2.50;;
23539;SDS011;11947;50.810;4.394;2023-02-03T08:00:12;11.40;;;1.92;;
23539;SDS011;11947;50.810;4.394;2023-02-03T08:02:39;12.73;;;2.13;;
23539;SDS011;11947;50.810;4.394;2023-02-03T08:05:08;9.23;;;1.90;;
23539;SDS011;11947;50.810;4.394;2023-02-03T08:07:34;10.45;;;2.20;;
23539;SDS011;11947;50.810;4.394;2023-02-03T08:10:00;10.55;;;1.92;;
23539;SDS011;11947;50.810;4.394;2023-02-03T08:12:26;13.15;;;2.08;;
23539;SDS011;11947;50.810;4.394;2023-02-03T08:14:51;17.27;;;2.10;;
23539;SDS011;11947;50.810;4.394;2023-02-03T08:17:17;10.70;;;2.40;;
23539;SDS011;11947;50.810;4.394;2023-02-03T08:19:43;12.57;;;2.10;;
23539;SDS011;11947;50.810;4.394;2023-02-03T08:22:08;8.18;;;1.88;;
23539;SDS011;11947;50.810;4.394;2023-02-03T08:24:40;11.20;;;1.73;;
23539;SDS011;11947;50.810;4.394;2023-02-03T08:27:09;7.95;;;1.75;;
23539;SDS011;11947;50.810;4.394;2023-02-03T08:29:38;10.52;;;1.70;;
23539;SDS011;11947;50.810;4.394;2023-02-03T08:32:04;14.60;;;2.55;;
23539;SDS011;11947;50.810;4.394;2023-02-03T08:34:32;9.38;;;2.10;;
23539;SDS011;11947;50.810;4.394;2023-02-03T08:36:58;10.57;;;2.13;;
23539;SDS011;11947;50.810;4.394;2023-02-03T08:39:24;7.45;;;2.40;;
23539;SDS011;11947;50.810;4.394;2023-02-03T08:41:49;10.07;;;1.88;;
23539;SDS011;11947;50.810;4.394;2023-02-03T08:44:15;8.65;;;1.90;;
23539;SDS011;11947;50.810;4.394;2023-02-03T08:46:42;11.70;;;1.85;;
23539;SDS011;11947;50.810;4.394;2023-02-03T08:49:08;11.38;;;1.88;;
23539;SDS011;11947;50.810;4.394;2023-02-03T08:51:34;13.00;;;2.25;;
23539;SDS011;11947;50.810;4.394;2023-02-03T08:54:00;11.65;;;1.73;;
23539;SDS011;11947;50.810;4.394;2023-02-03T08:56:26;8.05;;;2.00;;
23539;SDS011;11947;50.810;4.394;2023-02-03T08:58:53;11.65;;;1.98;;
23539;SDS011;11947;50.810;4.394;2023-02-03T09:01:19;9.70;;;1.65;;
23539;SDS011;11947;50.810;4.394;2023-02-03T09:03:45;10.20;;;2.00;;
23539;SDS011;11947;50.810;4.394;2023-02-03T09:06:11;12.63;;;2.40;;
23539;SDS011;11947;50.810;4.394;2023-02-03T09:08:40;11.68;;;1.77;;
23539;SDS011;11947;50.810;4.394;2023-02-03T09:11:09;9.10;;;1.65;;
23539;SDS011;11947;50.810;4.394;2023-02-03T09:13:36;6.25;;;1.60;;
23539;SDS011;11947;50.810;4.394;2023-02-03T09:16:03;11.15;;;2.00;;
23539;SDS011;11947;50.810;4.394;2023-02-03T09:18:30;12.00;;;1.77;;
23539;SDS011;11947;50.810;4.394;2023-02-03T09:21:00;11.68;;;1.90;;
23539;SDS011;11947;50.810;4.394;2023-02-03T09:23:26;9.60;;;2.08;;
23539;SDS011;11947;50.810;4.394;2023-02-03T09:25:52;10.82;;;1.65;;
23539;SDS011;11947;50.810;4.394;2023-02-03T09:28:17;12.98;;;1.90;;
23539;SDS011;11947;50.810;4.394;2023-02-03T09:30:43;12.98;;;2.15;;
23539;SDS011;11947;50.810;4.394;2023-02-03T09:33:08;8.00;;;1.80;;
23539;SDS011;11947;50.810;4.394;2023-02-03T09:35:34;9.15;;;1.80;;
23539;SDS011;11947;50.810;4.394;2023-02-03T09:37:59;11.18;;;1.95;;
23539;SDS011;11947;50.810;4.394;2023-02-03T09:40:29;15.00;;;1.95;;
23539;SDS011;11947;50.810;4.394;2023-02-03T09:45:46;10.88;;;2.55;;
23539;SDS011;11947;50.810;4.394;2023-02-03T09:48:17;15.90;;;2.55;;
23539;SDS011;11947;50.810;4.394;2023-02-03T09:50:46;12.27;;;2.50;;
23539;SDS011;11947;50.810;4.394;2023-02-03T09:53:27;13.20;;;3.05;;
23539;SDS011;11947;50.810;4.394;2023-02-03T09:55:59;8.77;;;1.92;;
23539;SDS011;11947;50.810;4.394;2023-02-03T09:58:32;10.52;;;2.45;;
23539;SDS011;11947;50.810;4.394;2023-02-03T10:00:58;10.75;;;2.38;;
23539;SDS011;11947;50.810;4.394;2023-02-03T10:06:37;10.88;;;2.72;;
23539;SDS011;11947;50.810;4.394;2023-02-03T10:12:15;9.45;;;2.40;;
23539;SDS011;11947;50.810;4.394;2023-02-03T10:17:32;9.32;;;2.80;;
23539;SDS011;11947;50.810;4.394;2023-02-03T10:20:15;9.88;;;2.85;;
23539;SDS011;11947;50.810;4.394;2023-02-03T10:22:51;10.18;;;2.80;;
23539;SDS011;11947;50.810;4.394;2023-02-03T10:28:08;12.93;;;3.10;;
23539;SDS011;11947;50.810;4.394;2023-02-03T10:30:44;10.07;;;2.75;;
23539;SDS011;11947;50.810;4.394;2023-02-03T10:33:14;8.95;;;2.47;;
23539;SDS011;11947;50.810;4.394;2023-02-03T10:40:57;12.13;;;2.53;;
23539;SDS011;11947;50.810;4.394;2023-02-03T10:43:23;12.82;;;3.10;;
23539;SDS011;11947;50.810;4.394;2023-02-03T10:46:07;10.77;;;3.00;;
23539;SDS011;11947;50.810;4.394;2023-02-03T10:48:33;10.85;;;2.60;;
23539;SDS011;11947;50.810;4.394;2023-02-03T10:50:58;11.38;;;2.65;;
23539;SDS011;11947;50.810;4.394;2023-02-03T10:53:33;11.45;;;3.60;;
23539;SDS011;11947;50.810;4.394;2023-02-03T10:56:07;16.30;;;3.00;;
23539;SDS011;11947;50.810;4.394;2023-02-03T10:58:39;10.18;;;3.25;;
23539;SDS011;11947;50.810;4.394;2023-02-03T11:01:12;6.03;;;2.75;;
23539;SDS011;11947;50.810;4.394;2023-02-03T11:03:41;8.98;;;2.78;;
23539;SDS011;11947;50.810;4.394;2023-02-03T11:08:40;9.80;;;3.17;;
23539;SDS011;11947;50.810;4.394;2023-02-03T11:11:09;12.48;;;3.40;;
23539;SDS011;11947;50.810;4.394;2023-02-03T11:13:38;9.63;;;3.40;;
23539;SDS011;11947;50.810;4.394;2023-02-03T11:21:41;14.05;;;3.08;;
23539;SDS011;11947;50.810;4.394;2023-02-03T11:24:14;10.25;;;3.28;;
23539;SDS011;11947;50.810;4.394;2023-02-03T11:27:03;15.05;;;3.55;;
23539;SDS011;11947;50.810;4.394;2023-02-03T11:29:35;11.20;;;2.90;;
23539;SDS011;11947;50.810;4.394;2023-02-03T11:32:12;11.60;;;2.88;;
23539;SDS011;11947;50.810;4.394;2023-02-03T11:35:25;9.25;;;2.95;;
23539;SDS011;11947;50.810;4.394;2023-02-03T11:37:45;11.73;;;3.22;;
23539;SDS011;11947;50.810;4.394;2023-02-03T11:43:04;13.15;;;2.75;;
23539;SDS011;11947;50.810;4.394;2023-02-03T11:46:12;16.38;;;3.33;;
23539;SDS011;11947;50.810;4.394;2023-02-03T11:48:42;14.23;;;3.03;;
23539;SDS011;11947;50.810;4.394;2023-02-03T11:57:15;12.77;;;3.50;;
23539;SDS011;11947;50.810;4.394;2023-02-03T12:07:35;8.25;;;3.42;;
23539;SDS011;11947;50.810;4.394;2023-02-03T12:10:25;9.52;;;3.40;;
23539;SDS011;11947;50.810;4.394;2023-02-03T12:13:06;8.32;;;3.78;;
23539;SDS011;11947;50.810;4.394;2023-02-03T12:23:33;11.60;;;3.08;;
23539;SDS011;11947;50.810;4.394;2023-02-03T12:26:14;8.65;;;3.28;;
23539;SDS011;11947;50.810;4.394;2023-02-03T12:33:49;9.43;;;3.40;;
23539;SDS011;11947;50.810;4.394;2023-02-03T12:36:37;12.63;;;3.72;;
23539;SDS011;11947;50.810;4.394;2023-02-03T12:42:01;9.85;;;3.65;;
23539;SDS011;11947;50.810;4.394;2023-02-03T12:44:33;13.65;;;4.35;;
23539;SDS011;11947;50.810;4.394;2023-02-03T12:47:22;9.65;;;4.40;;
23539;SDS011;11947;50.810;4.394;2023-02-03T12:49:56;15.88;;;4.63;;
23539;SDS011;11947;50.810;4.394;2023-02-03T12:55:27;11.55;;;4.45;;
23539;SDS011;11947;50.810;4.394;2023-02-03T12:58:01;16.13;;;4.70;;
23539;SDS011;11947;50.810;4.394;2023-02-03T13:00:46;12.23;;;4.35;;
23539;SDS011;11947;50.810;4.394;2023-02-03T13:03:26;16.08;;;4.30;;
23539;SDS011;11947;50.810;4.394;2023-02-03T13:11:32;13.23;;;4.65;;
23539;SDS011;11947;50.810;4.394;2023-02-03T13:14:10;13.88;;;4.72;;
23539;SDS011;11947;50.810;4.394;2023-02-03T13:16:43;11.55;;;4.35;;
23539;SDS011;11947;50.810;4.394;2023-02-03T13:19:22;13.50;;;4.45;;
23539;SDS011;11947;50.810;4.394;2023-02-03T13:21:51;14.00;;;4.90;;
23539;SDS011;11947;50.810;4.394;2023-02-03T13:24:17;14.25;;;5.15;;
23539;SDS011;11947;50.810;4.394;2023-02-03T13:35:25;15.27;;;5.25;;
23539;SDS011;11947;50.810;4.394;2023-02-03T13:43:45;13.98;;;5.68;;
23539;SDS011;11947;50.810;4.394;2023-02-03T13:46:23;13.32;;;5.72;;
23539;SDS011;11947;50.810;4.394;2023-02-03T13:48:51;17.50;;;5.60;;
23539;SDS011;11947;50.810;4.394;2023-02-03T13:51:22;14.57;;;5.65;;
23539;SDS011;11947;50.810;4.394;2023-02-03T13:53:57;13.10;;;6.32;;
23539;SDS011;11947;50.810;4.394;2023-02-03T13:56:27;12.82;;;6.10;;
23539;SDS011;11947;50.810;4.394;2023-02-03T14:01:34;14.95;;;6.32;;
23539;SDS011;11947;50.810;4.394;2023-02-03T14:04:02;17.52;;;7.10;;
23539;SDS011;11947;50.810;4.394;2023-02-03T14:09:19;14.55;;;6.50;;
23539;SDS011;11947;50.810;4.394;2023-02-03T14:12:19;12.98;;;6.03;;
23539;SDS011;11947;50.810;4.394;2023-02-03T14:14:57;13.85;;;6.75;;
23539;SDS011;11947;50.810;4.394;2023-02-03T14:20:10;18.10;;;6.63;;
23539;SDS011;11947;50.810;4.394;2023-02-03T14:22:59;10.60;;;5.90;;
23539;SDS011;11947;50.810;4.394;2023-02-03T14:25:39;12.20;;;6.03;;
23539;SDS011;11947;50.810;4.394;2023-02-03T14:28:13;11.85;;;6.85;;
23539;SDS011;11947;50.810;4.394;2023-02-03T14:31:01;16.02;;;6.00;;
23539;SDS011;11947;50.810;4.394;2023-02-03T14:38:52;12.73;;;5.78;;
23539;SDS011;11947;50.810;4.394;2023-02-03T14:41:22;17.08;;;5.65;;
23539;SDS011;11947;50.810;4.394;2023-02-03T14:49:57;12.70;;;4.13;;
23539;SDS011;11947;50.810;4.394;2023-02-03T14:55:58;12.02;;;4.70;;
23539;SDS011;11947;50.810;4.394;2023-02-03T14:58:42;8.48;;;3.50;;
23539;SDS011;11947;50.810;4.394;2023-02-03T15:02:06;7.43;;;3.72;;
23539;SDS011;11947;50.810;4.394;2023-02-03T15:09:38;10.57;;;3.15;;
23539;SDS011;11947;50.810;4.394;2023-02-03T15:14:42;9.88;;;3.03;;
23539;SDS011;11947;50.810;4.394;2023-02-03T15:17:27;7.93;;;3.10;;
23539;SDS011;11947;50.810;4.394;2023-02-03T15:19:54;14.25;;;3.00;;
23539;SDS011;11947;50.810;4.394;2023-02-03T15:22:24;8.88;;;3.05;;
23539;SDS011;11947;50.810;4.394;2023-02-03T15:24:52;9.98;;;2.90;;
23539;SDS011;11947;50.810;4.394;2023-02-03T15:27:28;7.68;;;3.00;;
23539;SDS011;11947;50.810;4.394;2023-02-03T15:29:55;9.75;;;3.15;;
23539;SDS011;11947;50.810;4.394;2023-02-03T15:32:25;6.68;;;2.65;;
23539;SDS011;11947;50.810;4.394;2023-02-03T15:34:59;10.23;;;3.33;;
23539;SDS011;11947;50.810;4.394;2023-02-03T15:37:50;9.85;;;3.15;;
23539;SDS011;11947;50.810;4.394;2023-02-03T15:40:25;11.73;;;3.60;;
23539;SDS011;11947;50.810;4.394;2023-02-03T15:45:36;7.90;;;2.85;;
23539;SDS011;11947;50.810;4.394;2023-02-03T15:50:41;10.20;;;3.00;;
23539;SDS011;11947;50.810;4.394;2023-02-03T15:53:10;11.82;;;3.13;;
23539;SDS011;11947;50.810;4.394;2023-02-03T15:55:47;10.73;;;3.22;;
23539;SDS011;11947;50.810;4.394;2023-02-03T15:58:16;10.25;;;3.10;;
23539;SDS011;11947;50.810;4.394;2023-02-03T16:00:46;9.65;;;3.30;;
23539;SDS011;11947;50.810;4.394;2023-02-03T16:03:18;9.75;;;3.50;;
23539;SDS011;11947;50.810;4.394;2023-02-03T16:06:08;8.63;;;3.20;;
23539;SDS011;11947;50.810;4.394;2023-02-03T16:08:42;14.30;;;3.22;;
23539;SDS011;11947;50.810;4.394;2023-02-03T16:11:19;10.70;;;3.45;;
23539;SDS011;11947;50.810;4.394;2023-02-03T16:13:56;14.52;;;3.60;;
23539;SDS011;11947;50.810;4.394;2023-02-03T16:19:15;7.03;;;3.47;;
23539;SDS011;11947;50.810;4.394;2023-02-03T16:24:34;13.50;;;3.15;;
23539;SDS011;11947;50.810;4.394;2023-02-03T16:29:50;8.85;;;3.33;;
23539;SDS011;11947;50.810;4.394;2023-02-03T16:32:58;11.38;;;3.67;;
23539;SDS011;11947;50.810;4.394;2023-02-03T16:35:43;9.82;;;3.65;;
23539;SDS011;11947;50.810;4.394;2023-02-03T16:38:27;6.97;;;3.17;;
23539;SDS011;11947;50.810;4.394;2023-02-03T16:41:13;10.25;;;3.35;;
23539;SDS011;11947;50.810;4.394;2023-02-03T16:44:00;12.15;;;3.33;;
23539;SDS011;11947;50.810;4.394;2023-02-03T16:46:44;9.77;;;4.05;;
23539;SDS011;11947;50.810;4.394;2023-02-03T16:49:30;11.88;;;3.60;;
23539;SDS011;11947;50.810;4.394;2023-02-03T16:52:14;6.10;;;3.15;;
23539;SDS011;11947;50.810;4.394;2023-02-03T16:54:39;6.70;;;3.65;;
23539;SDS011;11947;50.810;4.394;2023-02-03T16:57:05;9.93;;;3.83;;
23539;SDS011;11947;50.810;4.394;2023-02-03T16:59:30;9.75;;;4.20;;
23539;SDS011;11947;50.810;4.394;2023-02-03T17:01:56;9.35;;;3.95;;
23539;SDS011;11947;50.810;4.394;2023-02-03T17:04:22;9.65;;;3.92;;
23539;SDS011;11947;50.810;4.394;2023-02-03T17:06:47;11.52;;;3.92;;
23539;SDS011;11947;50.810;4.394;2023-02-03T17:09:15;9.52;;;3.97;;
23539;SDS011;11947;50.810;4.394;2023-02-03T17:11:46;13.20;;;4.60;;
23539;SDS011;11947;50.810;4.394;2023-02-03T17:14:12;11.55;;;3.85;;
23539;SDS011;11947;50.810;4.394;2023-02-03T17:16:39;13.68;;;4.63;;
23539;SDS011;11947;50.810;4.394;2023-02-03T17:19:05;11.70;;;4.40;;
23539;SDS011;11947;50.810;4.394;2023-02-03T17:21:34;10.30;;;3.97;;
23539;SDS011;11947;50.810;4.394;2023-02-03T17:24:00;11.15;;;4.40;;
23539;SDS011;11947;50.810;4.394;2023-02-03T17:26:25;10.27;;;3.92;;
23539;SDS011;11947;50.810;4.394;2023-02-03T17:28:51;12.70;;;4.57;;
23539;SDS011;11947;50.810;4.394;2023-02-03T17:31:18;14.07;;;4.43;;
23539;SDS011;11947;50.810;4.394;2023-02-03T17:33:44;13.68;;;4.57;;
23539;SDS011;11947;50.810;4.394;2023-02-03T17:36:15;12.00;;;4.35;;
23539;SDS011;11947;50.810;4.394;2023-02-03T17:41:09;14.32;;;4.63;;
23539;SDS011;11947;50.810;4.394;2023-02-03T17:43:36;10.38;;;4.43;;
23539;SDS011;11947;50.810;4.394;2023-02-03T17:46:02;12.60;;;5.05;;